createdAt,value
2023-02-04T00:00:49.697Z,2.20
2023-02-04T00:03:18.516Z,3.10
2023-02-04T00:05:46.879Z,3.08
2023-02-04T00:08:15.203Z,2.70
2023-02-04T00:10:44.776Z,2.50
2023-02-04T00:13:13.068Z,2.53
2023-02-04T00:15:41.465Z,2.85
2023-02-04T00:18:09.811Z,2.97
2023-02-04T00:20:38.084Z,2.55
2023-02-04T00:23:06.357Z,2.50
2023-02-04T00:25:34.635Z,2.40
2023-02-04T00:28:06.265Z,2.78
2023-02-04T00:30:35.050Z,2.65
2023-02-04T00:33:03.899Z,2.95
2023-02-04T00:35:32.177Z,2.75
2023-02-04T00:38:00.515Z,2.83
2023-02-04T00:40:29.245Z,2.33
2023-02-04T00:42:57.874Z,2.70
2023-02-04T00:45:27.513Z,2.13
2023-02-04T00:47:57.056Z,2.97
2023-02-04T00:50:25.420Z,2.58
2023-02-04T00:52:53.922Z,2.85
2023-02-04T00:55:22.234Z,2.97
2023-02-04T00:57:51.393Z,2.28
2023-02-04T01:00:19.908Z,2.70
2023-02-04T01:02:49.528Z,2.28
2023-02-04T01:05:17.939Z,2.83
2023-02-04T01:07:46.402Z,2.25
2023-02-04T01:10:16.069Z,2.90
2023-02-04T01:12:44.600Z,3.10
2023-02-04T01:15:13.309Z,2.17
2023-02-04T01:17:42.276Z,2.60
2023-02-04T01:20:12.698Z,2.00
2023-02-04T01:22:40.987Z,1.98
2023-02-04T01:25:09.742Z,1.83
2023-02-04T01:27:44.446Z,2.85
2023-02-04T01:30:14.475Z,2.70
2023-02-04T01:32:42.805Z,2.13
2023-02-04T01:35:12.668Z,2.38
2023-02-04T01:37:41.032Z,2.47
2023-02-04T01:40:09.956Z,1.90
2023-02-04T01:42:38.353Z,2.20
2023-02-04T01:45:07.232Z,2.20
2023-02-04T01:47:36.327Z,2.38
2023-02-04T01:50:08.247Z,2.67
2023-02-04T01:52:39.800Z,2.38
2023-02-04T01:55:14.209Z,2.95
2023-02-04T01:57:42.867Z,2.40
2023-02-04T02:00:14.760Z,2.53
2023-02-04T02:02:44.624Z,2.25
2023-02-04T02:05:14.496Z,2.20
2023-02-04T02:07:44.107Z,3.10
2023-02-04T02:10:13.415Z,1.98
2023-02-04T02:12:41.922Z,1.90
2023-02-04T02:15:11.437Z,1.77
2023-02-04T02:17:41.253Z,2.30
2023-02-04T02:20:09.861Z,2.33
2023-02-04T02:22:41.420Z,2.00
2023-02-04T02:25:12.642Z,2.13
2023-02-04T02:27:41.079Z,2.25
2023-02-04T02:30:10.970Z,2.40
2023-02-04T02:32:39.511Z,2.10
2023-02-04T02:35:08.482Z,2.17
2023-02-04T02:37:36.802Z,2.30
2023-02-04T02:40:05.757Z,2.22
2023-02-04T02:42:35.451Z,2.33
2023-02-04T02:45:05.038Z,2.38
2023-02-04T02:47:33.396Z,2.05
2023-02-04T02:50:01.816Z,2.42
2023-02-04T02:52:30.220Z,2.03
2023-02-04T02:54:58.545Z,2.40
2023-02-04T02:57:26.860Z,2.33
2023-02-04T02:59:57.484Z,2.53
2023-02-04T03:02:25.847Z,3.28
2023-02-04T03:04:55.740Z,2.30
2023-02-04T03:07:27.607Z,1.98
2023-02-04T03:09:55.888Z,2.30
2023-02-04T03:12:24.206Z,2.50
2023-02-04T03:14:52.586Z,2.95
2023-02-04T03:17:23.679Z,3.08
2023-02-04T03:19:51.941Z,2.63
2023-02-04T03:22:20.246Z,2.53
2023-02-04T03:24:48.833Z,2.53
2023-02-04T03:27:17.717Z,2.38
2023-02-04T03:29:46.428Z,2.00
2023-02-04T03:32:14.701Z,2.58
2023-02-04T03:34:44.360Z,2.35
2023-02-04T03:37:12.652Z,1.80
2023-02-04T03:39:41.235Z,2.35
2023-02-04T03:42:09.599Z,2.65
2023-02-04T03:44:37.873Z,2.67
2023-02-04T03:47:06.134Z,2.42
2023-02-04T03:49:35.754Z,2.55
2023-02-04T03:52:05.839Z,3.63
2023-02-04T03:54:34.156Z,1.92
2023-02-04T03:57:02.428Z,2.38
2023-02-04T03:59:30.734Z,3.00
2023-02-04T04:01:59.025Z,2.47
2023-02-04T04:04:27.321Z,2.40
2023-02-04T04:06:55.746Z,3.17
2023-02-04T04:09:25.365Z,2.63
2023-02-04T04:11:53.640Z,3.22
2023-02-04T04:14:21.918Z,2.17
2023-02-04T04:16:50.303Z,2.30
2023-02-04T04:19:18.570Z,2.25
2023-02-04T04:21:46.888Z,2.13
2023-02-04T04:24:15.118Z,1.98
2023-02-04T04:26:44.714Z,2.30
2023-02-04T04:29:13.329Z,2.38
2023-02-04T04:31:41.712Z,2.03
2023-02-04T04:34:10.139Z,2.15
2023-02-04T04:36:38.407Z,2.45
2023-02-04T04:39:06.634Z,2.15
2023-02-04T04:41:34.865Z,2.10
2023-02-04T04:44:04.523Z,2.80
2023-02-04T04:46:32.834Z,2.85
2023-02-04T04:49:01.095Z,2.63
2023-02-04T04:51:31.787Z,2.58
2023-02-04T04:54:00.180Z,1.95
2023-02-04T04:56:28.475Z,3.33
2023-02-04T04:58:56.758Z,2.22
2023-02-04T05:01:26.387Z,2.78
2023-02-04T05:03:54.738Z,2.47
2023-02-04T05:06:25.295Z,2.47
2023-02-04T05:08:53.555Z,2.70
2023-02-04T05:11:22.120Z,2.42
2023-02-04T05:13:50.441Z,2.63
2023-02-04T05:16:18.728Z,2.33
2023-02-04T05:18:48.393Z,2.90
2023-02-04T05:21:16.658Z,2.67
2023-02-04T05:23:44.958Z,1.98
2023-02-04T05:26:19.501Z,2.35
2023-02-04T05:28:53.551Z,2.65
2023-02-04T05:31:21.945Z,2.88
2023-02-04T05:33:51.674Z,2.50
2023-02-04T05:36:19.922Z,2.78
2023-02-04T05:38:48.459Z,2.10
2023-02-04T05:41:16.935Z,2.55
2023-02-04T05:43:45.271Z,2.47
2023-02-04T05:46:13.929Z,2.65
2023-02-04T05:48:42.198Z,2.55
2023-02-04T05:51:11.780Z,2.40
2023-02-04T05:53:40.141Z,2.78
2023-02-04T05:56:08.690Z,2.50
2023-02-04T05:58:38.769Z,2.85
2023-02-04T06:01:08.051Z,2.45
2023-02-04T06:03:36.389Z,3.22
2023-02-04T06:06:04.740Z,2.05
2023-02-04T06:08:34.349Z,2.63
2023-02-04T06:11:02.648Z,2.55
2023-02-04T06:13:30.925Z,2.28
2023-02-04T06:15:59.215Z,2.53
2023-02-04T06:18:27.469Z,3.17
2023-02-04T06:20:55.771Z,2.60
2023-02-04T06:23:24.058Z,2.97
2023-02-04T06:25:53.698Z,2.70
2023-02-04T06:28:21.973Z,2.63
2023-02-04T06:30:50.324Z,2.63
2023-02-04T06:33:18.616Z,2.30
2023-02-04T06:35:46.972Z,2.92
2023-02-04T06:38:15.366Z,2.70
2023-02-04T06:40:43.692Z,2.85
2023-02-04T06:43:13.381Z,2.63
2023-02-04T06:45:41.683Z,3.30
2023-02-04T06:48:09.996Z,3.20
2023-02-04T06:50:38.296Z,2.83
2023-02-04T06:53:06.576Z,2.85
2023-02-04T06:55:34.901Z,2.83
2023-02-04T06:58:03.331Z,2.30
2023-02-04T07:00:34.014Z,3.20
2023-02-04T07:03:02.800Z,3.10
2023-02-04T07:05:31.294Z,2.65
2023-02-04T07:07:59.637Z,3.42
2023-02-04T07:10:27.984Z,2.80
2023-02-04T07:12:56.305Z,2.85
2023-02-04T07:15:24.572Z,2.15
2023-02-04T07:17:54.216Z,3.30
2023-02-04T07:20:22.531Z,3.08
2023-02-04T07:22:50.787Z,2.75
2023-02-04T07:25:19.116Z,2.70
2023-02-04T07:27:47.398Z,2.40
2023-02-04T07:30:15.874Z,2.75
2023-02-04T07:32:44.100Z,3.03
2023-02-04T07:35:13.772Z,3.53
2023-02-04T07:37:42.020Z,3.03
2023-02-04T07:40:11.063Z,2.80
2023-02-04T07:42:39.359Z,3.03
2023-02-04T07:45:12.831Z,2.97
2023-02-04T07:47:41.166Z,3.22
2023-02-04T07:50:09.748Z,2.72
2023-02-04T07:52:39.577Z,3.03
2023-02-04T07:55:08.436Z,3.28
2023-02-04T07:57:36.705Z,4.05
2023-02-04T08:00:05.399Z,3.03
2023-02-04T08:02:41.192Z,3.10
2023-02-04T08:05:09.829Z,3.70
2023-02-04T08:07:39.866Z,3.22
2023-02-04T08:10:08.918Z,4.10
2023-02-04T08:12:37.258Z,3.13
2023-02-04T08:15:06.599Z,3.55
2023-02-04T08:17:34.900Z,3.45
2023-02-04T08:20:03.287Z,3.47
2023-02-04T08:22:31.649Z,3.08
2023-02-04T08:25:01.356Z,2.92
2023-02-04T08:27:29.670Z,3.63
2023-02-04T08:29:58.801Z,3.63
2023-02-04T08:32:29.132Z,4.10
2023-02-04T08:34:57.399Z,3.45
2023-02-04T08:37:31.107Z,2.88
2023-02-04T08:40:07.811Z,3.10
2023-02-04T08:42:36.141Z,3.42
2023-02-04T08:45:04.612Z,2.88
2023-02-04T08:47:33.003Z,2.85
2023-02-04T08:50:01.271Z,3.08
2023-02-04T08:52:29.854Z,3.30
2023-02-04T08:54:58.119Z,2.53
2023-02-04T08:57:27.715Z,4.25
2023-02-04T08:59:55.993Z,4.00
2023-02-04T09:02:24.360Z,4.28
2023-02-04T09:04:52.799Z,3.33
2023-02-04T09:07:21.619Z,3.60
2023-02-04T09:09:49.900Z,2.92
2023-02-04T09:12:18.232Z,3.30
2023-02-04T09:14:48.245Z,3.10
2023-02-04T09:17:16.564Z,2.30
2023-02-04T09:19:44.818Z,2.28
2023-02-04T09:22:13.353Z,2.55
2023-02-04T09:24:41.673Z,2.97
2023-02-04T09:27:09.957Z,2.50
2023-02-04T09:29:38.405Z,2.80
2023-02-04T09:32:08.179Z,2.60
2023-02-04T09:34:36.552Z,2.10
2023-02-04T09:37:04.852Z,2.50
2023-02-04T09:39:33.229Z,2.28
2023-02-04T09:42:01.591Z,2.70
2023-02-04T09:44:30.424Z,2.97
2023-02-04T09:47:00.484Z,2.55
2023-02-04T09:49:31.471Z,2.80
2023-02-04T09:52:00.954Z,2.72
2023-02-04T09:54:30.706Z,3.00
2023-02-04T09:56:59.356Z,2.80
2023-02-04T09:59:29.481Z,2.80
2023-02-04T10:02:02.912Z,3.03
2023-02-04T10:04:34.215Z,2.72
2023-02-04T10:07:03.902Z,2.80
2023-02-04T10:09:32.372Z,2.30
2023-02-04T10:12:00.811Z,2.30
2023-02-04T10:14:29.134Z,2.72
2023-02-04T10:16:59.593Z,2.88
2023-02-04T10:19:28.894Z,2.45
2023-02-04T10:21:58.819Z,2.00
2023-02-04T10:24:30.259Z,2.17
2023-02-04T10:27:08.292Z,2.00
2023-02-04T10:29:36.677Z,2.20
2023-02-04T10:32:05.153Z,2.20
2023-02-04T10:34:37.704Z,2.50
2023-02-04T10:37:15.912Z,2.15
2023-02-04T10:39:44.948Z,1.73
2023-02-04T10:42:22.105Z,1.92
2023-02-04T10:44:50.457Z,2.42
2023-02-04T10:47:20.277Z,2.10
2023-02-04T10:49:56.466Z,1.80
2023-02-04T10:52:27.659Z,1.90
2023-02-04T10:54:55.011Z,2.35
2023-02-04T10:57:24.302Z,1.55
2023-02-04T10:59:53.554Z,2.20
2023-02-04T11:02:41.321Z,1.83
2023-02-04T11:05:12.899Z,1.38
2023-02-04T11:07:42.947Z,1.75
2023-02-04T11:10:15.392Z,1.70
2023-02-04T11:12:44.983Z,2.08
2023-02-04T11:15:32.614Z,2.10
2023-02-04T11:18:05.253Z,1.60
2023-02-04T11:20:34.584Z,2.28
2023-02-04T11:23:17.133Z,1.88
2023-02-04T11:25:45.462Z,2.58
2023-02-04T11:28:17.318Z,2.47
2023-02-04T11:30:45.719Z,2.47
2023-02-04T11:33:24.702Z,2.20
2023-02-04T11:36:02.312Z,2.42
2023-02-04T11:38:32.823Z,2.05
2023-02-04T11:41:01.972Z,1.90
2023-02-04T11:43:34.516Z,2.58
2023-02-04T11:46:04.649Z,2.00
2023-02-04T11:48:34.977Z,2.10
2023-02-04T11:51:04.629Z,1.92
2023-02-04T11:53:35.155Z,2.10
2023-02-04T11:56:03.470Z,1.92
2023-02-04T11:58:32.310Z,1.85
2023-02-04T12:01:03.878Z,1.55
2023-02-04T12:03:34.848Z,1.77
2023-02-04T12:06:03.303Z,1.60
2023-02-04T12:08:34.171Z,1.40
2023-02-04T12:11:04.657Z,2.22
2023-02-04T12:13:33.628Z,2.00
2023-02-04T12:16:03.287Z,1.98
2023-02-04T12:18:32.248Z,1.90
2023-02-04T12:21:01.108Z,1.80
2023-02-04T12:23:30.487Z,1.77
2023-02-04T12:26:00.206Z,1.63
2023-02-04T12:28:28.988Z,1.40
2023-02-04T12:30:57.464Z,2.13
2023-02-04T12:33:25.858Z,1.40
2023-02-04T12:35:54.298Z,1.65
2023-02-04T12:38:22.739Z,1.90
2023-02-04T12:40:51.081Z,1.55
2023-02-04T12:43:20.693Z,1.83
2023-02-04T12:45:49.852Z,1.40
2023-02-04T12:48:18.749Z,1.45
2023-02-04T12:50:47.220Z,1.50
2023-02-04T12:53:20.756Z,1.55
2023-02-04T12:55:53.020Z,1.40
2023-02-04T12:58:22.800Z,1.92
2023-02-04T13:01:02.082Z,1.42
2023-02-04T13:03:31.762Z,1.50
2023-02-04T13:06:00.111Z,1.63
2023-02-04T13:08:28.467Z,6.72
2023-02-04T13:10:57.229Z,1.70
2023-02-04T13:13:28.515Z,1.73
2023-02-04T13:15:56.808Z,1.75
2023-02-04T13:18:34.662Z,2.28
2023-02-04T13:21:02.987Z,1.55
2023-02-04T13:23:31.363Z,1.60
2023-02-04T13:25:59.644Z,1.58
2023-02-04T13:28:29.335Z,1.92
2023-02-04T13:30:57.657Z,1.80
2023-02-04T13:33:25.936Z,1.92
2023-02-04T13:35:54.177Z,1.70
2023-02-04T13:38:22.564Z,1.67
2023-02-04T13:40:50.821Z,2.30
2023-02-04T13:43:19.469Z,1.45
2023-02-04T13:45:49.318Z,1.50
2023-02-04T13:48:17.743Z,1.58
2023-02-04T13:50:46.169Z,1.63
2023-02-04T13:53:14.480Z,1.40
2023-02-04T13:55:42.736Z,1.98
2023-02-04T13:58:11.042Z,1.73
2023-02-04T14:00:39.354Z,1.42
2023-02-04T14:03:09.279Z,2.20
2023-02-04T14:05:37.631Z,1.65
2023-02-04T14:08:06.043Z,1.20
2023-02-04T14:10:36.986Z,1.40
2023-02-04T14:13:06.636Z,1.83
2023-02-04T14:15:37.593Z,1.58
2023-02-04T14:18:06.244Z,1.95
2023-02-04T14:20:36.184Z,1.70
2023-02-04T14:23:07.353Z,1.98
2023-02-04T14:25:35.728Z,4.38
2023-02-04T14:28:04.044Z,2.08
2023-02-04T14:30:33.091Z,1.92
2023-02-04T14:33:01.741Z,1.65
2023-02-04T14:35:30.105Z,1.80
2023-02-04T14:37:59.753Z,1.85
2023-02-04T14:40:28.208Z,3.10
2023-02-04T14:42:56.518Z,1.77
2023-02-04T14:45:24.799Z,1.83
2023-02-04T14:47:56.894Z,1.60
2023-02-04T14:50:27.122Z,1.88
2023-02-04T14:52:56.719Z,1.83
2023-02-04T14:55:26.427Z,1.67
2023-02-04T14:57:55.003Z,1.67
2023-02-04T15:00:23.445Z,2.25
2023-02-04T15:02:51.873Z,1.98
2023-02-04T15:05:20.594Z,2.42
2023-02-04T15:07:49.011Z,1.55
2023-02-04T15:10:17.414Z,2.22
2023-02-04T15:12:47.269Z,1.67
2023-02-04T15:15:15.728Z,1.67
2023-02-04T15:17:44.036Z,1.85
2023-02-04T15:20:12.959Z,2.58
2023-02-04T15:22:41.221Z,2.00
2023-02-04T15:25:09.629Z,1.85
2023-02-04T15:27:37.910Z,1.77
2023-02-04T15:30:07.863Z,2.42
2023-02-04T15:32:36.172Z,2.38
2023-02-04T15:35:04.572Z,1.80
2023-02-04T15:37:33.569Z,1.98
2023-02-04T15:40:01.861Z,2.00
2023-02-04T15:42:30.307Z,1.75
2023-02-04T15:44:58.524Z,1.65
2023-02-04T15:47:28.212Z,2.22
2023-02-04T15:49:56.515Z,2.05
2023-02-04T15:52:25.826Z,2.70
2023-02-04T15:54:54.629Z,2.20
2023-02-04T15:57:22.920Z,1.90
2023-02-04T15:59:51.277Z,1.75
2023-02-04T16:02:19.513Z,2.42
2023-02-04T16:04:50.222Z,2.28
2023-02-04T16:07:18.921Z,1.65
2023-02-04T16:09:47.264Z,1.95
2023-02-04T16:12:15.548Z,2.45
2023-02-04T16:14:43.918Z,1.48
2023-02-04T16:17:12.211Z,2.00
2023-02-04T16:19:40.458Z,2.53
2023-02-04T16:22:10.076Z,2.90
2023-02-04T16:24:38.562Z,1.80
2023-02-04T16:27:06.806Z,2.22
2023-02-04T16:29:35.074Z,1.70
2023-02-04T16:32:03.341Z,2.85
2023-02-04T16:34:31.595Z,2.47
2023-02-04T16:36:59.857Z,2.33
2023-02-04T16:39:29.517Z,2.17
2023-02-04T16:41:58.043Z,1.92
2023-02-04T16:44:26.376Z,1.73
2023-02-04T16:46:54.898Z,1.73
2023-02-04T16:49:23.204Z,2.22
2023-02-04T16:51:51.473Z,2.05
2023-02-04T16:54:19.882Z,2.10
2023-02-04T16:56:49.464Z,2.05
2023-02-04T16:59:17.686Z,2.05
2023-02-04T17:01:46.089Z,2.20
2023-02-04T17:04:14.357Z,2.22
2023-02-04T17:06:43.074Z,2.88
2023-02-04T17:09:11.351Z,2.78
2023-02-04T17:11:39.616Z,3.50
2023-02-04T17:14:10.597Z,3.08
2023-02-04T17:16:39.183Z,2.53
2023-02-04T17:19:07.425Z,2.42
2023-02-04T17:21:35.771Z,3.00
2023-02-04T17:24:04.485Z,2.50
2023-02-04T17:26:37.052Z,2.30
2023-02-04T17:29:05.812Z,2.80
2023-02-04T17:31:35.457Z,2.58
2023-02-04T17:34:04.052Z,2.80
2023-02-04T17:36:32.571Z,2.70
2023-02-04T17:39:01.248Z,2.72
2023-02-04T17:41:29.892Z,2.45
2023-02-04T17:43:59.947Z,3.03
2023-02-04T17:46:28.348Z,2.45
2023-02-04T17:48:58.593Z,3.05
2023-02-04T17:51:26.898Z,2.47
2023-02-04T17:53:55.156Z,2.55
2023-02-04T17:56:23.470Z,2.70
2023-02-04T17:58:51.747Z,3.45
2023-02-04T18:01:21.773Z,2.22
2023-02-04T18:03:50.643Z,2.65
2023-02-04T18:06:26.903Z,2.40
2023-02-04T18:09:01.211Z,2.75
2023-02-04T18:11:32.994Z,2.30
2023-02-04T18:14:02.599Z,2.63
2023-02-04T18:16:31.756Z,2.60
2023-02-04T18:19:03.879Z,3.33
2023-02-04T18:21:33.795Z,2.88
2023-02-04T18:24:04.282Z,2.65
2023-02-04T18:26:34.044Z,2.95
2023-02-04T18:29:03.197Z,3.20
2023-02-04T18:31:35.178Z,2.65
2023-02-04T18:34:03.749Z,3.60
2023-02-04T18:36:34.974Z,3.78
2023-02-04T18:39:05.300Z,3.97
2023-02-04T18:41:34.160Z,3.00
2023-02-04T18:44:03.780Z,3.20
2023-02-04T18:46:34.020Z,4.00
2023-02-04T18:49:09.186Z,3.63
2023-02-04T18:51:41.402Z,3.25
2023-02-04T18:54:27.419Z,3.17
2023-02-04T18:56:56.394Z,3.08
2023-02-04T18:59:26.942Z,3.10
2023-02-04T19:01:55.392Z,3.55
2023-02-04T19:04:25.271Z,3.38
2023-02-04T19:06:56.855Z,3.90
2023-02-04T19:09:27.260Z,3.50
2023-02-04T19:11:55.977Z,3.38
2023-02-04T19:14:25.807Z,3.45
2023-02-04T19:16:54.813Z,3.60
2023-02-04T19:19:36.028Z,3.85
2023-02-04T19:22:15.468Z,3.42
2023-02-04T19:24:43.755Z,3.67
2023-02-04T19:27:29.057Z,4.03
2023-02-04T19:29:59.546Z,4.00
2023-02-04T19:32:29.484Z,4.57
2023-02-04T19:35:02.539Z,3.33
2023-02-04T19:37:38.859Z,3.90
2023-02-04T19:40:22.254Z,3.58
2023-02-04T19:42:50.558Z,3.90
2023-02-04T19:45:21.942Z,3.97
2023-02-04T19:47:51.430Z,3.70
2023-02-04T19:50:25.391Z,4.03
2023-02-04T19:52:56.766Z,4.40
2023-02-04T19:55:29.952Z,7.30
2023-02-04T19:57:59.734Z,4.70
2023-02-04T20:00:42.976Z,3.72
2023-02-04T20:03:13.863Z,4.10
2023-02-04T20:05:42.833Z,3.58
2023-02-04T20:08:31.401Z,4.07
2023-02-04T20:10:59.857Z,4.00
2023-02-04T20:13:28.740Z,3.55
2023-02-04T20:15:57.791Z,4.50
2023-02-04T20:18:28.080Z,3.80
2023-02-04T20:20:56.451Z,5.00
2023-02-04T20:23:29.109Z,4.18
2023-02-04T20:25:58.988Z,4.28
2023-02-04T20:28:45.743Z,4.03
2023-02-04T20:31:24.804Z,3.63
2023-02-04T20:33:54.097Z,3.78
2023-02-04T20:36:36.051Z,3.80
2023-02-04T20:39:13.678Z,4.10
2023-02-04T20:41:43.921Z,3.95
2023-02-04T20:44:16.853Z,4.15
2023-02-04T20:46:45.412Z,3.85
2023-02-04T20:49:19.562Z,3.50
2023-02-04T20:51:47.883Z,3.90
2023-02-04T20:54:18.293Z,3.50
2023-02-04T20:56:47.991Z,3.70
2023-02-04T20:59:30.897Z,3.35
2023-02-04T21:01:59.271Z,3.42
2023-02-04T21:04:30.595Z,3.30
2023-02-04T21:07:01.171Z,3.60
2023-02-04T21:09:31.284Z,2.95
2023-02-04T21:12:01.405Z,3.17
2023-02-04T21:14:30.599Z,3.33
2023-02-04T21:16:59.116Z,3.55
2023-02-04T21:19:28.620Z,3.53
2023-02-04T21:21:57.402Z,3.72
2023-02-04T21:24:26.182Z,3.72
2023-02-04T21:26:54.487Z,3.38
2023-02-04T21:29:25.913Z,3.75
2023-02-04T21:31:54.498Z,3.90
2023-02-04T21:34:23.122Z,4.10
2023-02-04T21:36:51.377Z,3.30
2023-02-04T21:39:20.654Z,4.20
2023-02-04T21:42:08.915Z,4.20
2023-02-04T21:44:38.580Z,4.50
2023-02-04T21:47:16.800Z,4.28
2023-02-04T21:49:45.940Z,4.07
2023-02-04T21:52:14.959Z,4.13
2023-02-04T21:54:43.215Z,4.22
2023-02-04T21:57:11.485Z,4.55
2023-02-04T21:59:42.710Z,4.05
2023-02-04T22:02:11.077Z,3.78
2023-02-04T22:04:39.314Z,3.88
2023-02-04T22:07:07.575Z,3.80
2023-02-04T22:09:36.358Z,3.85
2023-02-04T22:12:04.643Z,4.13
2023-02-04T22:14:50.557Z,3.58
2023-02-04T22:17:20.143Z,4.05
2023-02-04T22:19:48.405Z,4.05
2023-02-04T22:22:19.804Z,4.05
2023-02-04T22:24:48.431Z,4.45
2023-02-04T22:27:16.778Z,4.10
2023-02-04T22:29:45.213Z,5.03
2023-02-04T22:32:13.483Z,4.18
2023-02-04T22:34:43.154Z,4.70
2023-02-04T22:37:11.416Z,4.93
2023-02-04T22:39:39.696Z,4.32
2023-02-04T22:42:08.505Z,3.78
2023-02-04T22:44:36.816Z,4.22
2023-02-04T22:47:05.234Z,4.70
2023-02-04T22:49:35.003Z,4.22
2023-02-04T22:52:05.382Z,4.05
2023-02-04T22:54:34.231Z,3.95
2023-02-04T22:57:02.517Z,4.25
2023-02-04T22:59:31.067Z,3.50
2023-02-04T23:01:59.474Z,4.50
2023-02-04T23:04:27.719Z,3.70
2023-02-04T23:07:02.022Z,3.33
2023-02-04T23:09:31.987Z,3.90
2023-02-04T23:12:12.501Z,3.70
2023-02-04T23:14:45.179Z,3.80
2023-02-04T23:17:13.776Z,4.05
2023-02-04T23:19:42.337Z,3.15
2023-02-04T23:22:11.992Z,3.88
2023-02-04T23:24:42.224Z,3.83
2023-02-04T23:27:11.375Z,4.32
2023-02-04T23:29:40.339Z,3.75
2023-02-04T23:32:08.839Z,3.25
2023-02-04T23:34:37.378Z,3.55
2023-02-04T23:37:05.855Z,3.75
2023-02-04T23:39:34.114Z,3.95
2023-02-04T23:42:03.756Z,3.72
2023-02-04T23:44:32.063Z,3.88
2023-02-04T23:47:00.330Z,3.80
2023-02-04T23:49:28.564Z,3.38
2023-02-04T23:51:56.784Z,4.00
2023-02-04T23:54:25.048Z,3.88
2023-02-04T23:56:53.991Z,4.05
2023-02-04T23:59:23.784Z,3.65
